createdAt,value
2018-06-24T00:01:22.985Z,7.97
2018-06-24T00:03:50.609Z,8.07
2018-06-24T00:06:18.202Z,8.40
2018-06-24T00:08:52.964Z,7.87
2018-06-24T00:11:20.526Z,7.60
2018-06-24T00:13:48.110Z,8.33
2018-06-24T00:16:15.786Z,7.70
2018-06-24T00:18:43.412Z,7.93
2018-06-24T00:21:11.463Z,8.90
2018-06-24T00:23:39.033Z,9.10
2018-06-24T00:26:06.930Z,9.00
2018-06-24T00:28:34.782Z,8.10
2018-06-24T00:31:02.369Z,8.20
2018-06-24T00:33:30.159Z,8.07
2018-06-24T00:35:57.785Z,8.33
2018-06-24T00:38:25.377Z,8.17
2018-06-24T00:40:52.949Z,8.13
2018-06-24T00:43:20.948Z,9.00
2018-06-24T00:45:48.573Z,8.73
2018-06-24T00:48:16.155Z,8.17
2018-06-24T00:50:43.766Z,8.40
2018-06-24T00:53:11.989Z,8.30
2018-06-24T00:55:39.562Z,8.30
2018-06-24T00:58:07.345Z,8.67
2018-06-24T01:00:35.299Z,8.20
2018-06-24T01:03:02.881Z,8.07
2018-06-24T01:05:31.213Z,8.43
2018-06-24T01:07:58.781Z,8.00
2018-06-24T01:10:26.584Z,9.03
2018-06-24T01:12:54.207Z,8.33
2018-06-24T01:15:21.845Z,8.43
2018-06-24T01:17:49.422Z,8.90
2018-06-24T01:20:17.665Z,8.73
2018-06-24T01:22:45.257Z,8.20
2018-06-24T01:25:12.801Z,8.30
2018-06-24T01:27:40.397Z,8.10
2018-06-24T01:30:08.392Z,8.30
2018-06-24T01:32:36.372Z,7.93
2018-06-24T01:35:04.047Z,8.00
2018-06-24T01:37:31.677Z,8.33
2018-06-24T01:39:59.338Z,8.13
2018-06-24T01:42:26.946Z,8.43
2018-06-24T01:44:54.661Z,8.60
2018-06-24T01:47:22.322Z,8.37
2018-06-24T01:49:49.892Z,8.80
2018-06-24T01:52:17.528Z,9.03
2018-06-24T01:54:45.129Z,9.20
2018-06-24T01:57:12.728Z,8.93
2018-06-24T01:59:40.297Z,9.10
2018-06-24T02:02:08.888Z,10.03
2018-06-24T02:04:36.518Z,9.37
2018-06-24T02:07:04.189Z,9.70
2018-06-24T02:09:31.765Z,9.80
2018-06-24T02:11:59.385Z,9.27
2018-06-24T02:14:26.997Z,9.73
2018-06-24T02:16:54.620Z,9.37
2018-06-24T02:19:22.221Z,10.57
2018-06-24T02:21:49.817Z,10.27
2018-06-24T02:24:17.409Z,10.33
2018-06-24T02:26:45.001Z,11.50
2018-06-24T02:29:12.598Z,10.97
2018-06-24T02:31:40.152Z,11.80
2018-06-24T02:34:07.830Z,11.27
2018-06-24T02:36:35.502Z,12.10
2018-06-24T02:39:05.397Z,11.40
2018-06-24T02:41:33.034Z,11.17
2018-06-24T02:44:00.601Z,11.80
2018-06-24T02:46:28.164Z,12.37
2018-06-24T02:48:55.768Z,12.83
2018-06-24T02:51:23.316Z,12.47
2018-06-24T02:53:50.957Z,12.60
2018-06-24T02:56:18.570Z,13.37
2018-06-24T02:58:46.180Z,13.77
2018-06-24T03:01:13.769Z,13.53
2018-06-24T03:03:41.365Z,13.63
2018-06-24T03:06:09.434Z,13.30
2018-06-24T03:08:37.019Z,14.33
2018-06-24T03:11:04.622Z,13.30
2018-06-24T03:13:32.277Z,14.53
2018-06-24T03:16:00.543Z,13.67
2018-06-24T03:18:28.153Z,13.90
2018-06-24T03:20:55.713Z,13.70
2018-06-24T03:23:23.357Z,14.43
2018-06-24T03:25:51.254Z,14.23
2018-06-24T03:28:18.863Z,15.00
2018-06-24T03:30:46.452Z,14.53
2018-06-24T03:33:15.098Z,12.80
2018-06-24T03:35:42.714Z,13.80
2018-06-24T03:38:11.035Z,14.33
2018-06-24T03:40:39.265Z,14.03
2018-06-24T03:43:07.348Z,15.03
2018-06-24T03:45:35.792Z,15.40
2018-06-24T03:48:04.021Z,14.23
2018-06-24T03:50:31.690Z,15.00
2018-06-24T03:52:59.322Z,14.43
2018-06-24T03:55:26.902Z,14.20
2018-06-24T03:57:54.597Z,15.17
2018-06-24T04:00:22.320Z,13.63
2018-06-24T04:02:50.077Z,14.77
2018-06-24T04:05:17.677Z,15.17
2018-06-24T04:07:45.237Z,14.37
2018-06-24T04:10:12.841Z,14.67
2018-06-24T04:12:40.514Z,15.27
2018-06-24T04:15:08.110Z,15.30
2018-06-24T04:17:35.729Z,14.70
2018-06-24T04:20:03.360Z,15.50
2018-06-24T04:22:30.953Z,15.27
2018-06-24T04:24:58.549Z,15.23
2018-06-24T04:27:26.115Z,14.47
2018-06-24T04:29:53.681Z,15.07
2018-06-24T04:32:21.307Z,14.60
2018-06-24T04:34:48.905Z,15.40
2018-06-24T04:37:16.569Z,14.43
2018-06-24T04:39:44.141Z,14.90
2018-06-24T04:42:11.732Z,14.93
2018-06-24T04:44:39.347Z,14.60
2018-06-24T04:47:07.229Z,15.00
2018-06-24T04:49:34.952Z,14.50
2018-06-24T04:52:02.565Z,14.43
2018-06-24T04:54:30.157Z,14.67
2018-06-24T04:56:57.837Z,13.83
2018-06-24T04:59:25.565Z,13.87
2018-06-24T05:01:53.189Z,14.20
2018-06-24T05:04:20.767Z,14.40
2018-06-24T05:06:48.391Z,13.50
2018-06-24T05:09:16.242Z,15.03
2018-06-24T05:11:43.874Z,14.27
2018-06-24T05:14:11.458Z,13.60
2018-06-24T05:16:39.073Z,14.17
2018-06-24T05:19:07.341Z,13.00
2018-06-24T05:21:34.936Z,13.80
2018-06-24T05:24:02.521Z,13.83
2018-06-24T05:26:30.133Z,13.70
2018-06-24T05:28:57.691Z,14.07
2018-06-24T05:31:25.314Z,14.20
2018-06-24T05:33:52.893Z,13.40
2018-06-24T05:36:20.577Z,13.40
2018-06-24T05:38:48.301Z,14.17
2018-06-24T05:41:15.932Z,14.17
2018-06-24T05:43:43.498Z,14.50
2018-06-24T05:46:11.145Z,14.77
2018-06-24T05:48:38.765Z,14.50
2018-06-24T05:51:06.391Z,15.33
2018-06-24T05:53:34.021Z,15.40
2018-06-24T05:56:01.937Z,14.77
2018-06-24T05:58:29.581Z,15.90
2018-06-24T06:00:57.253Z,14.40
2018-06-24T06:03:25.186Z,14.63
2018-06-24T06:05:53.491Z,14.63
2018-06-24T06:08:21.097Z,15.80
2018-06-24T06:10:48.721Z,15.30
2018-06-24T06:13:16.293Z,15.17
2018-06-24T06:15:43.882Z,15.13
2018-06-24T06:18:13.165Z,14.40
2018-06-24T06:20:42.978Z,14.50
2018-06-24T06:23:10.661Z,14.70
2018-06-24T06:25:40.092Z,14.07
2018-06-24T06:28:07.778Z,14.37
2018-06-24T06:30:38.260Z,14.00
2018-06-24T06:33:05.903Z,13.83
2018-06-24T06:35:33.460Z,13.73
2018-06-24T06:38:03.041Z,13.20
2018-06-24T06:40:30.801Z,13.23
2018-06-24T06:42:58.983Z,14.23
2018-06-24T06:45:26.761Z,14.30
2018-06-24T06:47:56.076Z,13.77
2018-06-24T06:50:23.789Z,13.40
2018-06-24T06:52:51.342Z,14.70
2018-06-24T06:55:19.184Z,13.63
2018-06-24T06:57:46.894Z,12.57
2018-06-24T07:00:15.092Z,14.13
2018-06-24T07:02:43.337Z,13.13
2018-06-24T07:05:12.550Z,13.40
2018-06-24T07:07:40.968Z,13.80
2018-06-24T07:10:08.857Z,14.17
2018-06-24T07:12:37.049Z,13.37
2018-06-24T07:15:05.695Z,12.43
2018-06-24T07:17:33.740Z,13.30
2018-06-24T07:20:01.367Z,12.10
2018-06-24T07:22:29.581Z,11.50
2018-06-24T07:24:57.936Z,11.47
2018-06-24T07:27:26.124Z,10.73
2018-06-24T07:29:53.693Z,11.33
2018-06-24T07:32:21.301Z,32.77
2018-06-24T07:34:48.917Z,14.10
2018-06-24T07:37:16.542Z,19.03
2018-06-24T07:39:44.253Z,12.10
2018-06-24T07:42:12.110Z,12.73
2018-06-24T07:44:39.965Z,12.37
2018-06-24T07:47:07.719Z,12.57
2018-06-24T07:49:35.601Z,12.70
2018-06-24T07:52:05.365Z,13.30
2018-06-24T07:54:33.000Z,13.13
2018-06-24T07:57:00.647Z,14.20
2018-06-24T07:59:29.207Z,14.07
2018-06-24T08:01:56.881Z,14.23
2018-06-24T08:04:24.485Z,14.60
2018-06-24T08:06:52.129Z,14.70
2018-06-24T08:09:19.758Z,13.80
2018-06-24T08:11:48.379Z,15.27
2018-06-24T08:14:15.990Z,15.30
2018-06-24T08:16:43.570Z,15.07
2018-06-24T08:19:11.249Z,15.50
2018-06-24T08:21:38.986Z,14.13
2018-06-24T08:24:06.592Z,22.07
2018-06-24T08:26:34.370Z,18.60
2018-06-24T08:29:02.116Z,14.33
2018-06-24T08:31:31.716Z,14.57
2018-06-24T08:33:59.461Z,15.23
2018-06-24T08:36:27.658Z,15.00
2018-06-24T08:38:55.642Z,76.93
2018-06-24T08:41:24.417Z,14.57
2018-06-24T08:43:52.113Z,13.60
2018-06-24T08:46:19.734Z,13.43
2018-06-24T08:48:47.428Z,13.70
2018-06-24T08:51:15.180Z,14.63
2018-06-24T08:53:43.401Z,12.83
2018-06-24T08:56:11.058Z,12.37
2018-06-24T08:58:38.926Z,14.90
2018-06-24T09:01:06.801Z,11.37
2018-06-24T09:03:35.041Z,10.60
2018-06-24T09:06:02.580Z,10.97
2018-06-24T09:08:30.400Z,11.20
2018-06-24T09:10:57.977Z,12.70
2018-06-24T09:13:25.877Z,11.70
2018-06-24T09:15:53.997Z,11.30
2018-06-24T09:18:22.020Z,11.63
2018-06-24T09:20:49.841Z,10.70
2018-06-24T09:23:17.693Z,11.87
2018-06-24T09:25:45.419Z,10.47
2018-06-24T09:28:13.053Z,11.60
2018-06-24T09:30:40.649Z,14.23
2018-06-24T09:33:08.270Z,11.17
2018-06-24T09:35:36.061Z,9.90
2018-06-24T09:38:03.752Z,11.50
2018-06-24T09:40:31.692Z,13.17
2018-06-24T09:42:59.580Z,13.87
2018-06-24T09:45:27.080Z,13.93
2018-06-24T09:47:54.652Z,14.00
2018-06-24T09:50:22.980Z,13.83
2018-06-24T09:52:50.551Z,15.23
2018-06-24T09:55:18.165Z,14.87
2018-06-24T09:57:45.809Z,15.20
2018-06-24T10:00:19.828Z,14.00
2018-06-24T10:02:47.508Z,22.97
2018-06-24T10:05:16.158Z,13.63
2018-06-24T10:07:44.818Z,11.70
2018-06-24T10:10:12.505Z,10.77
2018-06-24T10:12:40.469Z,9.97
2018-06-24T10:15:08.460Z,8.93
2018-06-24T10:17:36.108Z,8.27
2018-06-24T10:20:04.071Z,6.77
2018-06-24T10:22:31.632Z,6.90
2018-06-24T10:24:59.362Z,7.37
2018-06-24T10:27:26.918Z,5.93
2018-06-24T10:29:54.593Z,5.27
2018-06-24T10:32:22.177Z,5.23
2018-06-24T10:34:49.805Z,5.77
2018-06-24T10:37:17.406Z,5.63
2018-06-24T10:39:45.313Z,5.20
2018-06-24T10:42:12.877Z,4.70
2018-06-24T10:44:40.580Z,4.60
2018-06-24T10:47:08.158Z,4.80
2018-06-24T10:49:35.761Z,4.53
2018-06-24T10:52:03.373Z,5.80
2018-06-24T10:54:31.033Z,4.50
2018-06-24T10:56:58.636Z,4.40
2018-06-24T10:59:26.199Z,3.77
2018-06-24T11:01:53.837Z,4.93
2018-06-24T11:04:21.377Z,4.23
2018-06-24T11:06:49.906Z,4.47
2018-06-24T11:09:17.618Z,3.90
2018-06-24T11:11:45.186Z,4.10
2018-06-24T11:14:12.985Z,4.03
2018-06-24T11:16:40.883Z,5.00
2018-06-24T11:19:08.943Z,10.63
2018-06-24T11:21:36.513Z,6.63
2018-06-24T11:24:04.193Z,7.17
2018-06-24T11:26:32.397Z,4.30
2018-06-24T11:29:00.782Z,4.50
2018-06-24T11:31:28.337Z,5.77
2018-06-24T11:33:55.905Z,4.60
2018-06-24T11:36:23.595Z,5.20
2018-06-24T11:38:54.520Z,4.30
2018-06-24T11:41:25.043Z,4.07
2018-06-24T11:43:54.745Z,3.97
2018-06-24T11:46:24.259Z,3.20
2018-06-24T11:48:52.947Z,3.50
2018-06-24T11:51:20.572Z,3.40
2018-06-24T11:53:48.186Z,3.10
2018-06-24T11:56:16.069Z,3.20
2018-06-24T11:58:43.969Z,2.83
2018-06-24T12:01:11.994Z,3.10
2018-06-24T12:03:39.717Z,2.80
2018-06-24T12:06:07.793Z,2.43
2018-06-24T12:08:35.377Z,2.70
2018-06-24T12:11:03.065Z,2.40
2018-06-24T12:13:31.078Z,2.20
2018-06-24T12:15:59.344Z,1.93
2018-06-24T12:18:26.925Z,2.20
2018-06-24T12:20:54.497Z,1.90
2018-06-24T12:23:22.082Z,1.90
2018-06-24T12:25:49.697Z,1.90
2018-06-24T12:28:17.281Z,2.40
2018-06-24T12:30:45.117Z,2.03
2018-06-24T12:33:12.665Z,13.57
2018-06-24T12:35:41.129Z,2.70
2018-06-24T12:38:09.054Z,1.93
2018-06-24T12:40:36.686Z,1.70
2018-06-24T12:43:04.937Z,1.77
2018-06-24T12:45:33.257Z,2.17
2018-06-24T12:48:01.125Z,1.90
2018-06-24T12:50:29.032Z,1.90
2018-06-24T12:52:57.118Z,1.60
2018-06-24T12:55:24.719Z,1.93
2018-06-24T12:57:53.309Z,1.70
2018-06-24T13:00:21.292Z,2.00
2018-06-24T13:02:48.536Z,1.40
2018-06-24T13:05:16.569Z,1.60
2018-06-24T13:07:44.486Z,1.90
2018-06-24T13:10:12.334Z,1.70
2018-06-24T13:12:39.993Z,1.80
2018-06-24T13:15:07.706Z,2.13
2018-06-24T13:17:35.409Z,1.60
2018-06-24T13:20:03.194Z,1.50
2018-06-24T13:22:31.027Z,1.40
2018-06-24T13:24:58.943Z,1.30
2018-06-24T13:27:27.124Z,1.33
2018-06-24T13:29:54.838Z,1.53
2018-06-24T13:32:53.350Z,1.60
2018-06-24T13:35:22.173Z,1.20
2018-06-24T13:37:50.177Z,1.50
2018-06-24T13:40:17.825Z,1.10
2018-06-24T13:42:45.841Z,1.23
2018-06-24T13:45:13.785Z,1.20
2018-06-24T13:47:41.506Z,1.20
2018-06-24T13:50:09.113Z,1.30
2018-06-24T13:52:37.376Z,1.47
2018-06-24T13:55:05.082Z,1.50
2018-06-24T13:57:32.697Z,1.30
2018-06-24T14:00:00.966Z,1.30
2018-06-24T14:02:28.653Z,1.43
2018-06-24T14:04:57.404Z,1.60
2018-06-24T14:07:25.118Z,1.37
2018-06-24T14:09:53.686Z,1.50
2018-06-24T14:12:22.090Z,1.70
2018-06-24T14:14:49.937Z,1.40
2018-06-24T14:17:17.900Z,1.93
2018-06-24T14:19:45.818Z,1.87
2018-06-24T14:22:13.989Z,2.17
2018-06-24T14:24:41.618Z,1.90
2018-06-24T14:27:09.282Z,2.10
2018-06-24T14:29:36.925Z,1.90
2018-06-24T14:32:04.563Z,1.63
2018-06-24T14:34:33.833Z,1.67
2018-06-24T14:37:01.633Z,1.77
2018-06-24T14:39:29.217Z,1.93
2018-06-24T14:41:56.847Z,1.80
2018-06-24T14:44:24.905Z,1.83
2018-06-24T14:46:53.265Z,1.70
2018-06-24T14:49:20.876Z,2.10
2018-06-24T14:51:48.504Z,2.30
2018-06-24T14:54:16.086Z,2.17
2018-06-24T14:56:43.652Z,2.00
2018-06-24T14:59:11.329Z,4.77
2018-06-24T15:01:39.293Z,2.23
2018-06-24T15:04:06.853Z,2.03
2018-06-24T15:06:34.598Z,1.90
2018-06-24T15:09:02.457Z,1.77
2018-06-24T15:11:30.042Z,1.70
2018-06-24T15:13:57.690Z,1.90
2018-06-24T15:16:25.569Z,2.20
2018-06-24T15:18:53.281Z,2.23
2018-06-24T15:21:20.844Z,2.00
2018-06-24T15:23:48.504Z,1.90
2018-06-24T15:26:19.889Z,2.20
2018-06-24T15:28:47.494Z,2.40
2018-06-24T15:31:15.394Z,2.27
2018-06-24T15:33:43.022Z,2.43
2018-06-24T15:36:10.612Z,1.93
2018-06-24T15:38:38.260Z,7.57
2018-06-24T15:41:06.092Z,2.60
2018-06-24T15:43:34.496Z,2.50
2018-06-24T15:46:02.134Z,2.00
2018-06-24T15:48:29.725Z,2.10
2018-06-24T15:50:57.337Z,2.20
2018-06-24T15:53:25.005Z,2.20
2018-06-24T15:55:52.685Z,2.50
2018-06-24T15:58:20.277Z,2.30
2018-06-24T16:00:47.898Z,2.03
2018-06-24T16:03:15.552Z,2.07
2018-06-24T16:05:43.129Z,2.40
2018-06-24T16:08:10.746Z,2.20
2018-06-24T16:10:38.453Z,2.40
2018-06-24T16:13:06.357Z,2.20
2018-06-24T16:15:34.103Z,2.07
2018-06-24T16:18:01.833Z,2.20
2018-06-24T16:20:29.581Z,5.10
2018-06-24T16:22:57.342Z,3.43
2018-06-24T16:25:24.936Z,2.83
2018-06-24T16:27:52.824Z,2.30
2018-06-24T16:30:20.421Z,2.30
2018-06-24T16:32:48.195Z,2.70
2018-06-24T16:35:17.226Z,2.70
2018-06-24T16:37:46.534Z,2.50
2018-06-24T16:40:14.225Z,2.10
2018-06-24T16:42:41.838Z,2.43
2018-06-24T16:45:09.509Z,2.63
2018-06-24T16:47:37.192Z,2.70
2018-06-24T16:50:04.866Z,2.40
2018-06-24T16:52:32.589Z,2.70
2018-06-24T16:55:00.235Z,2.43
2018-06-24T16:57:28.158Z,2.70
2018-06-24T16:59:56.044Z,2.47
2018-06-24T17:02:23.664Z,2.60
2018-06-24T17:04:51.442Z,2.40
2018-06-24T17:07:19.281Z,2.20
2018-06-24T17:09:46.937Z,2.30
2018-06-24T17:12:14.569Z,2.40
2018-06-24T17:14:42.173Z,2.40
2018-06-24T17:17:09.876Z,2.40
2018-06-24T17:19:37.525Z,2.83
2018-06-24T17:22:05.178Z,2.70
2018-06-24T17:24:32.781Z,2.73
2018-06-24T17:27:00.414Z,2.43
2018-06-24T17:29:28.162Z,5.40
2018-06-24T17:31:55.921Z,5.80
2018-06-24T17:34:23.545Z,3.20
2018-06-24T17:36:51.197Z,4.70
2018-06-24T17:39:18.817Z,2.33
2018-06-24T17:41:46.550Z,2.17
2018-06-24T17:44:14.521Z,2.20
2018-06-24T17:46:42.532Z,2.27
2018-06-24T17:49:10.211Z,2.23
2018-06-24T17:51:37.849Z,2.20
2018-06-24T17:54:05.791Z,3.00
2018-06-24T17:56:33.642Z,2.73
2018-06-24T17:59:01.457Z,2.43
2018-06-24T18:01:29.249Z,2.60
2018-06-24T18:03:56.890Z,2.40
2018-06-24T18:06:24.529Z,2.70
2018-06-24T18:08:52.141Z,2.47
2018-06-24T18:11:20.216Z,2.37
2018-06-24T18:13:47.801Z,2.50
2018-06-24T18:16:15.414Z,2.20
2018-06-24T18:18:43.310Z,2.50
2018-06-24T18:21:10.915Z,2.60
2018-06-24T18:23:38.513Z,2.53
2018-06-24T18:26:06.423Z,2.80
2018-06-24T18:28:34.275Z,2.47
2018-06-24T18:31:01.969Z,2.83
2018-06-24T18:33:29.590Z,3.17
2018-06-24T18:35:57.310Z,3.20
2018-06-24T18:38:25.304Z,3.20
2018-06-24T18:40:52.905Z,3.03
2018-06-24T18:43:20.985Z,2.93
2018-06-24T18:45:48.781Z,3.10
2018-06-24T18:48:16.397Z,3.30
2018-06-24T18:50:44.045Z,3.20
2018-06-24T18:53:12.009Z,2.90
2018-06-24T18:55:39.657Z,3.13
2018-06-24T18:58:07.589Z,2.90
2018-06-24T19:00:35.525Z,3.33
2018-06-24T19:03:06.041Z,4.03
2018-06-24T19:05:34.233Z,16.83
2018-06-24T19:08:02.277Z,4.77
2018-06-24T19:10:30.547Z,2.73
2018-06-24T19:12:59.056Z,2.83
2018-06-24T19:15:27.085Z,2.83
2018-06-24T19:17:55.593Z,2.70
2018-06-24T19:20:23.329Z,2.77
2018-06-24T19:22:51.227Z,2.60
2018-06-24T19:25:19.034Z,2.30
2018-06-24T19:27:46.737Z,2.20
2018-06-24T19:30:14.744Z,2.10
2018-06-24T19:32:42.385Z,2.17
2018-06-24T19:35:10.137Z,3.77
2018-06-24T19:37:38.150Z,2.60
2018-06-24T19:40:05.994Z,3.10
2018-06-24T19:42:33.688Z,2.80
2018-06-24T19:45:01.943Z,3.03
2018-06-24T19:47:30.586Z,2.83
2018-06-24T19:49:58.269Z,14.03
2018-06-24T19:52:25.869Z,4.23
2018-06-24T19:54:53.449Z,4.27
2018-06-24T19:57:21.109Z,4.90
2018-06-24T19:59:49.664Z,4.00
2018-06-24T20:02:17.330Z,2.87
2018-06-24T20:04:44.932Z,3.00
2018-06-24T20:07:12.575Z,3.67
2018-06-24T20:09:40.349Z,3.00
2018-06-24T20:12:09.113Z,3.10
2018-06-24T20:14:37.093Z,3.10
2018-06-24T20:17:05.122Z,3.40
2018-06-24T20:19:32.742Z,3.43
2018-06-24T20:22:00.391Z,3.37
2018-06-24T20:24:28.081Z,2.93
2018-06-24T20:26:55.645Z,2.90
2018-06-24T20:29:23.546Z,2.70
2018-06-24T20:31:51.789Z,2.93
2018-06-24T20:34:19.489Z,2.77
2018-06-24T20:36:47.287Z,2.87
2018-06-24T20:39:14.880Z,3.00
2018-06-24T20:41:42.513Z,2.80
2018-06-24T20:44:10.217Z,3.10
2018-06-24T20:46:37.910Z,2.60
2018-06-24T20:49:05.702Z,2.60
2018-06-24T20:51:33.305Z,2.67
2018-06-24T20:54:00.886Z,2.93
2018-06-24T20:56:28.512Z,2.97
2018-06-24T20:58:57.580Z,2.90
2018-06-24T21:01:25.377Z,2.80
2018-06-24T21:03:53.312Z,2.77
2018-06-24T21:06:20.985Z,2.80
2018-06-24T21:08:48.656Z,3.00
2018-06-24T21:11:16.290Z,2.93
2018-06-24T21:13:44.925Z,3.00
2018-06-24T21:16:12.559Z,3.00
2018-06-24T21:18:40.222Z,3.60
2018-06-24T21:21:07.946Z,3.60
2018-06-24T21:23:35.577Z,3.70
2018-06-24T21:26:03.296Z,4.50
2018-06-24T21:28:31.037Z,4.90
2018-06-24T21:30:58.907Z,5.47
2018-06-24T21:33:26.868Z,5.20
2018-06-24T21:35:56.469Z,4.73
2018-06-24T21:38:24.097Z,4.10
2018-06-24T21:40:51.721Z,3.70
2018-06-24T21:43:19.336Z,3.20
2018-06-24T21:45:46.925Z,3.10
2018-06-24T21:48:14.558Z,2.17
2018-06-24T21:50:42.193Z,2.00
2018-06-24T21:53:09.854Z,1.77
2018-06-24T21:55:37.555Z,2.00
2018-06-24T21:58:05.993Z,1.70
2018-06-24T22:00:33.651Z,2.30
2018-06-24T22:03:01.306Z,2.47
2018-06-24T22:05:28.935Z,2.50
2018-06-24T22:07:56.830Z,2.90
2018-06-24T22:10:24.414Z,2.87
2018-06-24T22:12:52.046Z,2.83
2018-06-24T22:15:19.728Z,3.23
2018-06-24T22:17:47.493Z,3.30
2018-06-24T22:20:15.117Z,4.07
2018-06-24T22:22:42.730Z,3.40
2018-06-24T22:26:13.266Z,3.40
2018-06-24T22:28:40.905Z,2.93
2018-06-24T22:31:09.328Z,3.20
2018-06-24T22:33:36.945Z,3.30
2018-06-24T22:36:04.593Z,3.27
2018-06-24T22:38:32.210Z,2.93
2018-06-24T22:40:59.880Z,3.00
2018-06-24T22:43:27.430Z,2.93
2018-06-24T22:45:55.173Z,3.20
2018-06-24T22:48:22.809Z,2.80
2018-06-24T22:50:50.546Z,2.90
2018-06-24T22:53:18.472Z,2.90
2018-06-24T22:55:46.100Z,3.17
2018-06-24T22:58:13.709Z,3.20
2018-06-24T23:00:41.490Z,3.43
2018-06-24T23:03:09.174Z,3.43
2018-06-24T23:05:36.801Z,3.60
2018-06-24T23:08:04.536Z,3.87
2018-06-24T23:10:32.270Z,4.17
2018-06-24T23:13:00.154Z,4.00
2018-06-24T23:15:27.766Z,4.10
2018-06-24T23:17:55.406Z,3.80
2018-06-24T23:20:23.089Z,3.77
2018-06-24T23:22:51.073Z,3.77
2018-06-24T23:25:18.643Z,4.87
2018-06-24T23:27:46.301Z,3.47
2018-06-24T23:30:13.898Z,3.50
2018-06-24T23:32:41.621Z,3.10
2018-06-24T23:35:09.296Z,3.37
2018-06-24T23:37:37.098Z,3.30
2018-06-24T23:40:04.740Z,3.60
2018-06-24T23:42:32.414Z,3.33
2018-06-24T23:45:00.221Z,3.37
2018-06-24T23:47:27.865Z,3.40
2018-06-24T23:49:56.345Z,3.20
2018-06-24T23:52:23.995Z,3.13
2018-06-24T23:54:51.612Z,3.37
2018-06-24T23:57:19.276Z,3.50
2018-06-24T23:59:46.843Z,3.50
